Time;durP1;ratioP1;P1;durP2;ratioP2;P2;SDS_P1;SDS_P2;PMS_P1;PMS_P2;Temp;Humidity;BMP_temperature;BMP_pressure;BME280_temperature;BME280_humidity;BME280_pressure;Samples;Min_cycle;Max_cycle;Signal;HPM_P1;HPM_P2
2021/11/30 00:01:30;;;;;;;;;;;;;;;;;;110812;1274;7986;-74
2021/11/30 00:03:59;;;;;;;;;;;;;;;;;;110923;1273;9765;-74
2021/11/30 00:06:27;;;;;;;;;;;;;;;;;;110933;1274;8360;-74
2021/11/30 00:09:09;;;;;;;;;;;;;;;;;;110936;1274;8768;-74
2021/11/30 00:11:37;;;;;;;;;;;;;;;;;;110935;1273;8921;-74
2021/11/30 00:14:05;;;;;;;;;;;;;;;;;;110964;1274;9694;-74
2021/11/30 00:16:33;;;;;;;;;;;;;;;;;;110946;1275;7974;-74
2021/11/30 00:19:01;;;;;;;;;;;;;;;;;;110958;1275;8911;-74
2021/11/30 00:21:29;;;;;;;;;;;;;;;;;;110980;1276;9690;-74
2021/11/30 00:23:57;;;;;;;;;;;;;;;;;;110964;1275;8365;-74
2021/11/30 00:26:24;;;;;;;;;;;;;;;;;;110938;1275;8845;-74
2021/11/30 00:28:52;;;;;;;;;;;;;;;;;;110788;1275;9710;-74
2021/11/30 00:31:20;;;;;;;;;;;;;;;;;;110969;1274;8046;-74
2021/11/30 00:33:48;;;;;;;;;;;;;;;;;;110923;1276;8769;-74
2021/11/30 00:36:17;;;;;;;;;;;;;;;;;;110791;1277;9694;-73
2021/11/30 00:38:46;;;;;;;;;;;;;;;;;;110786;1275;8376;-73
2021/11/30 00:41:14;;;;;;;;;;;;;;;;;;110475;1278;9747;-73
2021/11/30 00:43:42;;;;;;;;;;;;;;;;;;110482;1278;7965;-73
2021/11/30 00:46:14;;;;;;;;;;;;;;;;;;110446;1277;9691;-73
2021/11/30 00:48:43;;;;;;;;;;;;;;;;;;110789;1275;9289;-73
2021/11/30 00:51:17;;;;;;;;;;;;;;;;;;110818;1277;7979;-73
2021/11/30 00:53:49;;;;;;;;;;;;;;;;;;110796;1277;8922;-74
2021/11/30 00:56:17;;;;;;;;;;;;;;;;;;110928;1274;8368;-73
2021/11/30 00:58:46;;;;;;;;;;;;;;;;;;110983;1275;8801;-73
2021/11/30 01:01:14;;;;;;;;;;;;;;;;;;110488;1276;8370;-74
2021/11/30 01:03:42;;;;;;;;;;;;;;;;;;110936;1276;9693;-73
2021/11/30 01:06:11;;;;;;;;;;;;;;;;;;110956;1276;8933;-73
2021/11/30 01:08:39;;;;;;;;;;;;;;;;;;110951;1275;9690;-73
2021/11/30 01:11:07;;;;;;;;;;;;;;;;;;110956;1275;8373;-73
2021/11/30 01:13:35;;;;;;;;;;;;;;;;;;110943;1275;8801;-73
2021/11/30 01:16:03;;;;;;;;;;;;;;;;;;110956;1274;9691;-73
2021/11/30 01:18:31;;;;;;;;;;;;;;;;;;110931;1273;10087;-73
2021/11/30 01:21:00;;;;;;;;;;;;;;;;;;110928;1274;8702;-73
2021/11/30 01:23:30;;;;;;;;;;;;;;;;;;110968;1276;9768;-73
2021/11/30 01:26:00;;;;;;;;;;;;;;;;;;110936;1274;9711;-74
2021/11/30 01:28:28;;;;;;;;;;;;;;;;;;110955;1276;7998;-72
2021/11/30 01:30:56;;;;;;;;;;;;;;;;;;110950;1275;9698;-72
2021/11/30 01:33:24;;;;;;;;;;;;;;;;;;110968;1276;8757;-73
2021/11/30 01:35:53;;;;;;;;;;;;;;;;;;110954;1275;8991;-73
2021/11/30 01:38:23;;;;;;;;;;;;;;;;;;110941;1274;9401;-74
2021/11/30 01:40:51;;;;;;;;;;;;;;;;;;110945;1275;8008;-74
2021/11/30 01:43:21;;;;;;;;;;;;;;;;;;110938;1274;9704;-74
2021/11/30 01:46:06;;;;;;;;;;;;;;;;;;110946;1274;8360;-73
2021/11/30 01:51:23;;;;;;;;;;;;;;;;;;110842;1276;9697;-74
2021/11/30 01:53:52;;;;;;;;;;;;;;;;;;110982;1275;9709;-73
2021/11/30 01:56:20;;;;;;;;;;;;;;;;;;110978;1275;7963;-74
2021/11/30 01:58:50;;;;;;;;;;;;;;;;;;110952;1274;8446;-74
2021/11/30 02:01:19;;;;;;;;;;;;;;;;;;110975;1273;8802;-75
2021/11/30 02:03:48;;;;;;;;;;;;;;;;;;111011;1276;8373;-74
2021/11/30 02:06:16;;;;;;;;;;;;;;;;;;110992;1276;8781;-74
2021/11/30 02:08:44;;;;;;;;;;;;;;;;;;110978;1276;9723;-74
2021/11/30 02:11:12;;;;;;;;;;;;;;;;;;110534;1276;7969;-74
2021/11/30 02:13:40;;;;;;;;;;;;;;;;;;110437;1279;8771;-73
2021/11/30 02:16:08;;;;;;;;;;;;;;;;;;110207;1279;8011;-73
2021/11/30 02:18:44;;;;;;;;;;;;;;;;;;110913;1273;9704;-73
2021/11/30 02:21:12;;;;;;;;;;;;;;;;;;110951;1276;8246;-74
2021/11/30 02:24:00;;;;;;;;;;;;;;;;;;110945;1274;9706;-73
2021/11/30 02:26:29;;;;;;;;;;;;;;;;;;110765;1275;9785;-73
2021/11/30 02:28:57;;;;;;;;;;;;;;;;;;110483;1278;8011;-72
2021/11/30 02:31:45;;;;;;;;;;;;;;;;;;110958;1276;8911;-72
2021/11/30 02:34:16;;;;;;;;;;;;;;;;;;110798;1277;9718;-74
2021/11/30 02:39:14;;;;;;;;;;;;;;;;;;110803;1275;8770;-73
2021/11/30 02:41:44;;;;;;;;;;;;;;;;;;110403;1275;9711;-74
2021/11/30 02:44:13;;;;;;;;;;;;;;;;;;110769;1275;7989;-76
2021/11/30 02:46:44;;;;;;;;;;;;;;;;;;110942;1276;9698;-73
2021/11/30 02:49:32;;;;;;;;;;;;;;;;;;110946;1274;9530;-73
2021/11/30 02:52:06;;;;;;;;;;;;;;;;;;110966;1275;8805;-74
2021/11/30 02:54:36;;;;;;;;;;;;;;;;;;110956;1274;9682;-74
2021/11/30 02:57:05;;;;;;;;;;;;;;;;;;110815;1276;8081;-72
2021/11/30 02:59:35;;;;;;;;;;;;;;;;;;110934;1276;8923;-73
2021/11/30 03:02:09;;;;;;;;;;;;;;;;;;110936;1276;9826;-73
2021/11/30 03:04:37;;;;;;;;;;;;;;;;;;110557;1276;8011;-73
2021/11/30 03:07:08;;;;;;;;;;;;;;;;;;110521;1276;8771;-73
2021/11/30 03:09:37;;;;;;;;;;;;;;;;;;110961;1275;9717;-73
2021/11/30 03:12:05;;;;;;;;;;;;;;;;;;110961;1276;8060;-73
2021/11/30 03:14:33;;;;;;;;;;;;;;;;;;110967;1276;8768;-73
2021/11/30 03:17:02;;;;;;;;;;;;;;;;;;110998;1276;9720;-73
2021/11/30 03:19:31;;;;;;;;;;;;;;;;;;110959;1272;9687;-73
2021/11/30 03:22:00;;;;;;;;;;;;;;;;;;110970;1275;8360;-73
2021/11/30 03:24:28;;;;;;;;;;;;;;;;;;110977;1276;7988;-73
2021/11/30 03:26:56;;;;;;;;;;;;;;;;;;110994;1276;9704;-75
2021/11/30 03:29:24;;;;;;;;;;;;;;;;;;110961;1274;8371;-75
2021/11/30 03:33:58;;;;;;;;;;;;;;;;;;110955;1276;9691;-73
2021/11/30 03:34:40;;;;;;;;;;;;;;;;;;110952;1276;9711;-73
2021/11/30 03:37:08;;;;;;;;;;;;;;;;;;110945;1275;8010;-74
2021/11/30 03:39:36;;;;;;;;;;;;;;;;;;110919;1276;9691;-74
2021/11/30 03:42:05;;;;;;;;;;;;;;;;;;110962;1275;9706;-74
2021/11/30 03:44:33;;;;;;;;;;;;;;;;;;110970;1274;9706;-74
2021/11/30 03:47:00;;;;;;;;;;;;;;;;;;110953;1276;9993;-73
2021/11/30 03:49:28;;;;;;;;;;;;;;;;;;110980;1276;8748;-73
2021/11/30 03:51:56;;;;;;;;;;;;;;;;;;110956;1275;8148;-73
2021/11/30 03:54:25;;;;;;;;;;;;;;;;;;110973;1276;8363;-73
2021/11/30 03:56:53;;;;;;;;;;;;;;;;;;110832;1276;8768;-73
2021/11/30 03:59:20;;;;;;;;;;;;;;;;;;110485;1276;9690;-74
2021/11/30 04:01:49;;;;;;;;;;;;;;;;;;110874;1275;8054;-74
2021/11/30 04:04:22;;;;;;;;;;;;;;;;;;110944;1276;9690;-74
2021/11/30 04:06:52;;;;;;;;;;;;;;;;;;110972;1276;7983;-74
2021/11/30 04:09:20;;;;;;;;;;;;;;;;;;110927;1274;9732;-74
2021/11/30 04:11:49;;;;;;;;;;;;;;;;;;110474;1278;8773;-74
2021/11/30 04:14:18;;;;;;;;;;;;;;;;;;110791;1277;8011;-74
2021/11/30 04:16:46;;;;;;;;;;;;;;;;;;110955;1275;9803;-74
2021/11/30 04:19:14;;;;;;;;;;;;;;;;;;110940;1273;8922;-74
2021/11/30 04:21:42;;;;;;;;;;;;;;;;;;110953;1276;8974;-74
2021/11/30 04:24:11;;;;;;;;;;;;;;;;;;110993;1275;9693;-74
2021/11/30 04:26:39;;;;;;;;;;;;;;;;;;110925;1274;8781;-74
2021/11/30 04:29:08;;;;;;;;;;;;;;;;;;110566;1276;9709;-74
2021/11/30 04:31:36;;;;;;;;;;;;;;;;;;110451;1278;8762;-74
2021/11/30 04:34:04;;;;;;;;;;;;;;;;;;110805;1277;9687;-74
2021/11/30 04:36:33;;;;;;;;;;;;;;;;;;110785;1276;8373;-74
2021/11/30 04:39:03;;;;;;;;;;;;;;;;;;110072;1276;526897;-74
2021/11/30 04:41:30;;;;;;;;;;;;;;;;;;110471;1278;8916;-74
2021/11/30 04:43:59;;;;;;;;;;;;;;;;;;110962;1276;9690;-74
2021/11/30 04:46:38;;;;;;;;;;;;;;;;;;110916;1275;8818;-74
2021/11/30 04:49:26;;;;;;;;;;;;;;;;;;110924;1276;9384;-73
2021/11/30 04:51:55;;;;;;;;;;;;;;;;;;110947;1274;8780;-73
2021/11/30 04:54:23;;;;;;;;;;;;;;;;;;110805;1276;8364;-73
2021/11/30 04:56:52;;;;;;;;;;;;;;;;;;110933;1276;9694;-73
2021/11/30 04:59:21;;;;;;;;;;;;;;;;;;110795;1275;9698;-74
2021/11/30 05:01:49;;;;;;;;;;;;;;;;;;110944;1276;8372;-73
2021/11/30 05:04:18;;;;;;;;;;;;;;;;;;110978;1276;8802;-73
2021/11/30 05:06:45;;;;;;;;;;;;;;;;;;110938;1274;9687;-73
2021/11/30 05:09:13;;;;;;;;;;;;;;;;;;110947;1276;8870;-73
2021/11/30 05:11:41;;;;;;;;;;;;;;;;;;110956;1276;8909;-73
2021/11/30 05:14:09;;;;;;;;;;;;;;;;;;110976;1273;7950;-73
2021/11/30 05:16:39;;;;;;;;;;;;;;;;;;110817;1276;9567;-73
2021/11/30 05:19:08;;;;;;;;;;;;;;;;;;110962;1276;9803;-73
2021/11/30 05:21:36;;;;;;;;;;;;;;;;;;110978;1276;8065;-73
2021/11/30 05:24:06;;;;;;;;;;;;;;;;;;110448;1278;8732;-73
2021/11/30 05:26:35;;;;;;;;;;;;;;;;;;110429;1277;7983;-73
2021/11/30 05:29:04;;;;;;;;;;;;;;;;;;110901;1276;9032;-73
2021/11/30 05:31:32;;;;;;;;;;;;;;;;;;110422;1277;7953;-73
2021/11/30 05:34:00;;;;;;;;;;;;;;;;;;110435;1278;9716;-74
2021/11/30 05:36:29;;;;;;;;;;;;;;;;;;110811;1277;8911;-73
2021/11/30 05:38:57;;;;;;;;;;;;;;;;;;110777;1277;8061;-73
2021/11/30 05:41:25;;;;;;;;;;;;;;;;;;110450;1278;9715;-73
2021/11/30 05:43:53;;;;;;;;;;;;;;;;;;110978;1275;8370;-74
2021/11/30 05:46:21;;;;;;;;;;;;;;;;;;110466;1278;9040;-74
2021/11/30 05:48:49;;;;;;;;;;;;;;;;;;110445;1277;8815;-74
2021/11/30 05:51:17;;;;;;;;;;;;;;;;;;110959;1276;9701;-73
2021/11/30 05:53:45;;;;;;;;;;;;;;;;;;110933;1276;8371;-74
2021/11/30 05:56:13;;;;;;;;;;;;;;;;;;110977;1276;8784;-73
2021/11/30 05:58:43;;;;;;;;;;;;;;;;;;110979;1275;8803;-73
2021/11/30 06:02:13;;;;;;;;;;;;;;;;;;110978;1276;9754;-73
2021/11/30 06:04:09;;;;;;;;;;;;;;;;;;110785;1276;8736;-74
2021/11/30 06:06:37;;;;;;;;;;;;;;;;;;110966;1275;9752;-74
2021/11/30 06:09:08;;;;;;;;;;;;;;;;;;110955;1274;8796;-74
2021/11/30 06:11:36;;;;;;;;;;;;;;;;;;110958;1274;8368;-73
2021/11/30 06:14:04;;;;;;;;;;;;;;;;;;110968;1276;9687;-73
2021/11/30 06:16:32;;;;;;;;;;;;;;;;;;110807;1277;9704;-73
2021/11/30 06:19:01;;;;;;;;;;;;;;;;;;110942;1276;7951;-73
2021/11/30 06:21:29;;;;;;;;;;;;;;;;;;110963;1276;8768;-73
2021/11/30 06:23:56;;;;;;;;;;;;;;;;;;110963;1273;9690;-74
2021/11/30 06:26:25;;;;;;;;;;;;;;;;;;110968;1276;7997;-73
2021/11/30 06:28:53;;;;;;;;;;;;;;;;;;110938;1276;8767;-74
2021/11/30 06:31:20;;;;;;;;;;;;;;;;;;110949;1276;9687;-74
2021/11/30 06:33:48;;;;;;;;;;;;;;;;;;110977;1276;7947;-74
2021/11/30 06:36:16;;;;;;;;;;;;;;;;;;110966;1276;7967;-74
2021/11/30 06:38:44;;;;;;;;;;;;;;;;;;110935;1276;9706;-74
2021/11/30 06:41:12;;;;;;;;;;;;;;;;;;110946;1274;9717;-74
2021/11/30 06:43:40;;;;;;;;;;;;;;;;;;110944;1276;7962;-74
2021/11/30 06:46:08;;;;;;;;;;;;;;;;;;110235;1279;9810;-74
2021/11/30 06:48:36;;;;;;;;;;;;;;;;;;110951;1276;7917;-74
2021/11/30 06:51:04;;;;;;;;;;;;;;;;;;110926;1274;8756;-74
2021/11/30 06:53:35;;;;;;;;;;;;;;;;;;110919;1276;8868;-74
2021/11/30 06:56:03;;;;;;;;;;;;;;;;;;110953;1274;9690;-74
2021/11/30 06:58:31;;;;;;;;;;;;;;;;;;110946;1275;8370;-74
2021/11/30 07:00:59;;;;;;;;;;;;;;;;;;110939;1274;8786;-74
2021/11/30 07:03:27;;;;;;;;;;;;;;;;;;110942;1276;9701;-74
2021/11/30 07:05:58;;;;;;;;;;;;;;;;;;110953;1276;9689;-74
2021/11/30 07:13:58;;;;;;;;;;;;;;;;;;110776;1277;8849;-73
2021/11/30 07:16:26;;;;;;;;;;;;;;;;;;110942;1274;9691;-73
2021/11/30 07:18:54;;;;;;;;;;;;;;;;;;110938;1276;8360;-72
2021/11/30 07:21:24;;;;;;;;;;;;;;;;;;110953;1274;9034;-73
2021/11/30 07:23:53;;;;;;;;;;;;;;;;;;110800;1277;8854;-73
2021/11/30 07:26:21;;;;;;;;;;;;;;;;;;110792;1276;9693;-74
2021/11/30 07:28:49;;;;;;;;;;;;;;;;;;110785;1277;8426;-74
2021/11/30 07:31:18;;;;;;;;;;;;;;;;;;110981;1274;8754;-74
2021/11/30 07:33:48;;;;;;;;;;;;;;;;;;110960;1276;8760;-74
2021/11/30 07:36:18;;;;;;;;;;;;;;;;;;110922;1274;9783;-74
2021/11/30 07:38:47;;;;;;;;;;;;;;;;;;110929;1274;8428;-74
2021/11/30 07:41:17;;;;;;;;;;;;;;;;;;110951;1276;9746;-73
2021/11/30 07:43:46;;;;;;;;;;;;;;;;;;110928;1276;8898;-73
2021/11/30 07:46:14;;;;;;;;;;;;;;;;;;110953;1276;8369;-73
2021/11/30 07:48:42;;;;;;;;;;;;;;;;;;110987;1276;9688;-73
2021/11/30 07:51:15;;;;;;;;;;;;;;;;;;111028;1275;9734;-73
2021/11/30 07:53:44;;;;;;;;;;;;;;;;;;111087;1275;8920;-74
2021/11/30 07:56:12;;;;;;;;;;;;;;;;;;111078;1275;9704;-73
2021/11/30 07:58:40;;;;;;;;;;;;;;;;;;110855;1275;7990;-73
2021/11/30 08:01:10;;;;;;;;;;;;;;;;;;111078;1276;9703;-74
2021/11/30 08:03:38;;;;;;;;;;;;;;;;;;111097;1274;7958;-74
2021/11/30 08:06:05;;;;;;;;;;;;;;;;;;110796;1277;8771;-74
2021/11/30 08:08:33;;;;;;;;;;;;;;;;;;110943;1276;9684;-74
2021/11/30 08:11:01;;;;;;;;;;;;;;;;;;111064;1275;7996;-74
2021/11/30 08:13:29;;;;;;;;;;;;;;;;;;110831;1277;9690;-73
2021/11/30 08:15:57;;;;;;;;;;;;;;;;;;110932;1274;8786;-73
2021/11/30 08:18:26;;;;;;;;;;;;;;;;;;110942;1275;9706;-74
2021/11/30 08:20:55;;;;;;;;;;;;;;;;;;110950;1276;8787;-73
2021/11/30 08:23:24;;;;;;;;;;;;;;;;;;110473;1278;9689;-73
2021/11/30 08:25:52;;;;;;;;;;;;;;;;;;110809;1275;9683;-75
2021/11/30 08:28:20;;;;;;;;;;;;;;;;;;110798;1277;9698;-73
2021/11/30 08:30:48;;;;;;;;;;;;;;;;;;110954;1276;7967;-74
2021/11/30 08:33:17;;;;;;;;;;;;;;;;;;110788;1277;8771;-74
2021/11/30 08:35:46;;;;;;;;;;;;;;;;;;110797;1277;9698;-74
2021/11/30 08:38:15;;;;;;;;;;;;;;;;;;110958;1276;9717;-74
2021/11/30 08:40:43;;;;;;;;;;;;;;;;;;110949;1274;8384;-74
2021/11/30 08:43:11;;;;;;;;;;;;;;;;;;110921;1274;8780;-74
2021/11/30 08:45:39;;;;;;;;;;;;;;;;;;110806;1273;9689;-74
2021/11/30 08:48:07;;;;;;;;;;;;;;;;;;110934;1274;9298;-74
2021/11/30 08:50:35;;;;;;;;;;;;;;;;;;110809;1276;8805;-74
2021/11/30 08:53:04;;;;;;;;;;;;;;;;;;110946;1274;9700;-74
2021/11/30 08:55:32;;;;;;;;;;;;;;;;;;110934;1276;8787;-73
2021/11/30 08:58:02;;;;;;;;;;;;;;;;;;110933;1275;8009;-73
2021/11/30 09:00:31;;;;;;;;;;;;;;;;;;110453;1278;8832;-73
2021/11/30 09:02:59;;;;;;;;;;;;;;;;;;110806;1275;9749;-73
2021/11/30 09:05:29;;;;;;;;;;;;;;;;;;110978;1276;8784;-73
2021/11/30 09:07:57;;;;;;;;;;;;;;;;;;110926;1276;9687;-73
2021/11/30 09:10:25;;;;;;;;;;;;;;;;;;110962;1276;8381;-73
2021/11/30 09:12:53;;;;;;;;;;;;;;;;;;110762;1277;8928;-74
2021/11/30 09:15:22;;;;;;;;;;;;;;;;;;110927;1276;8670;-73
2021/11/30 09:17:52;;;;;;;;;;;;;;;;;;110826;1276;8775;-73
2021/11/30 09:20:20;;;;;;;;;;;;;;;;;;110967;1274;9691;-75
2021/11/30 09:22:50;;;;;;;;;;;;;;;;;;110928;1274;7966;-75
2021/11/30 09:25:22;;;;;;;;;;;;;;;;;;110930;1276;8880;-73
2021/11/30 09:27:51;;;;;;;;;;;;;;;;;;110970;1274;7960;-74
2021/11/30 09:30:24;;;;;;;;;;;;;;;;;;110954;1274;9732;-72
2021/11/30 09:32:52;;;;;;;;;;;;;;;;;;110443;1278;9805;-74
2021/11/30 09:35:21;;;;;;;;;;;;;;;;;;110761;1276;8372;-73
2021/11/30 09:37:51;;;;;;;;;;;;;;;;;;110765;1276;8940;-74
2021/11/30 09:40:21;;;;;;;;;;;;;;;;;;110971;1275;9691;-74
2021/11/30 09:43:00;;;;;;;;;;;;;;;;;;110942;1276;9734;-74
2021/11/30 09:45:37;;;;;;;;;;;;;;;;;;110962;1275;8028;-74
2021/11/30 09:48:10;;;;;;;;;;;;;;;;;;110950;1275;9692;-74
2021/11/30 09:50:40;;;;;;;;;;;;;;;;;;110942;1276;8053;-74
2021/11/30 09:53:09;;;;;;;;;;;;;;;;;;110855;1276;7983;-73
2021/11/30 09:55:38;;;;;;;;;;;;;;;;;;111033;1276;9735;-74
2021/11/30 09:58:10;;;;;;;;;;;;;;;;;;110963;1274;8125;-75
2021/11/30 10:00:38;;;;;;;;;;;;;;;;;;110941;1274;8910;-75
2021/11/30 10:03:07;;;;;;;;;;;;;;;;;;110961;1276;9052;-75
2021/11/30 10:05:37;;;;;;;;;;;;;;;;;;110924;1275;10003;-74
2021/11/30 10:08:07;;;;;;;;;;;;;;;;;;110948;1276;8359;-73
2021/11/30 10:10:38;;;;;;;;;;;;;;;;;;110954;1276;9713;-74
2021/11/30 10:13:06;;;;;;;;;;;;;;;;;;110960;1274;7960;-73
2021/11/30 10:15:46;;;;;;;;;;;;;;;;;;110968;1274;8784;-73
2021/11/30 10:18:14;;;;;;;;;;;;;;;;;;110940;1274;8373;-73
2021/11/30 10:20:42;;;;;;;;;;;;;;;;;;110929;1274;8782;-74
2021/11/30 10:23:11;;;;;;;;;;;;;;;;;;110929;1276;8515;-75
2021/11/30 10:25:40;;;;;;;;;;;;;;;;;;110893;1276;9793;-74
2021/11/30 10:28:11;;;;;;;;;;;;;;;;;;110955;1274;8076;-76
2021/11/30 10:30:41;;;;;;;;;;;;;;;;;;110942;1276;8031;-75
2021/11/30 10:33:27;;;;;;;;;;;;;;;;;;110961;1274;8938;-74
2021/11/30 10:35:57;;;;;;;;;;;;;;;;;;110455;1278;8047;-73
2021/11/30 10:38:33;;;;;;;;;;;;;;;;;;110898;1276;9694;-75
2021/11/30 10:41:13;;;;;;;;;;;;;;;;;;110954;1276;8785;-75
2021/11/30 10:44:03;;;;;;;;;;;;;;;;;;110956;1274;8010;-75
2021/11/30 10:46:35;;;;;;;;;;;;;;;;;;110965;1274;8001;-78
2021/11/30 10:49:05;;;;;;;;;;;;;;;;;;110985;1274;9750;-77
2021/11/30 10:51:49;;;;;;;;;;;;;;;;;;110941;1275;8016;-79
2021/11/30 10:54:35;;;;;;;;;;;;;;;;;;110788;1277;8040;-75
2021/11/30 10:57:04;;;;;;;;;;;;;;;;;;110943;1276;9688;-77
2021/11/30 10:59:35;;;;;;;;;;;;;;;;;;110805;1276;8364;-76
2021/11/30 11:02:03;;;;;;;;;;;;;;;;;;110838;1276;8361;-76
2021/11/30 11:04:37;;;;;;;;;;;;;;;;;;110632;1277;8804;-76
2021/11/30 11:07:10;;;;;;;;;;;;;;;;;;110658;1275;8056;-77
2021/11/30 11:10:07;;;;;;;;;;;;;;;;;;111000;1276;8813;-78
2021/11/30 11:12:35;;;;;;;;;;;;;;;;;;110634;1276;9693;-76
2021/11/30 11:15:07;;;;;;;;;;;;;;;;;;110817;1275;8373;-78
2021/11/30 11:17:37;;;;;;;;;;;;;;;;;;110530;1276;9486;-77
2021/11/30 11:20:05;;;;;;;;;;;;;;;;;;110841;1275;9660;-76
2021/11/30 11:22:34;;;;;;;;;;;;;;;;;;110448;1278;8948;-77
2021/11/30 11:25:06;;;;;;;;;;;;;;;;;;110898;1276;9709;-77
2021/11/30 11:27:39;;;;;;;;;;;;;;;;;;110961;1276;7977;-77
2021/11/30 11:30:13;;;;;;;;;;;;;;;;;;110920;1276;8051;-76
2021/11/30 11:32:43;;;;;;;;;;;;;;;;;;110911;1274;8944;-77
2021/11/30 11:35:12;;;;;;;;;;;;;;;;;;110874;1275;8793;-76
2021/11/30 11:37:41;;;;;;;;;;;;;;;;;;110466;1276;7988;-76
2021/11/30 11:40:13;;;;;;;;;;;;;;;;;;110938;1275;9706;-76
2021/11/30 11:42:42;;;;;;;;;;;;;;;;;;110950;1275;7960;-75
2021/11/30 11:45:10;;;;;;;;;;;;;;;;;;110937;1274;8799;-75
2021/11/30 11:47:38;;;;;;;;;;;;;;;;;;110956;1274;9694;-74
2021/11/30 11:50:13;;;;;;;;;;;;;;;;;;111005;1276;9688;-77
2021/11/30 11:52:42;;;;;;;;;;;;;;;;;;110966;1275;7998;-75
2021/11/30 11:55:14;;;;;;;;;;;;;;;;;;110815;1275;8874;-75
2021/11/30 11:57:56;;;;;;;;;;;;;;;;;;110941;1274;9707;-74
2021/11/30 12:00:28;;;;;;;;;;;;;;;;;;110971;1274;9048;-74
2021/11/30 12:03:03;;;;;;;;;;;;;;;;;;110963;1275;8008;-74
2021/11/30 12:05:52;;;;;;;;;;;;;;;;;;110937;1274;8408;-74
2021/11/30 12:08:35;;;;;;;;;;;;;;;;;;110940;1276;8842;-75
2021/11/30 12:11:11;;;;;;;;;;;;;;;;;;110998;1275;9690;-75
2021/11/30 12:13:58;;;;;;;;;;;;;;;;;;110616;1276;8960;-75
2021/11/30 12:16:27;;;;;;;;;;;;;;;;;;110599;1276;9791;-76
2021/11/30 12:18:56;;;;;;;;;;;;;;;;;;110981;1274;8396;-74
2021/11/30 12:21:29;;;;;;;;;;;;;;;;;;110643;1276;9792;-74
2021/11/30 12:23:58;;;;;;;;;;;;;;;;;;110670;1275;9010;-73
2021/11/30 12:26:41;;;;;;;;;;;;;;;;;;111083;1274;7996;-73
2021/11/30 12:29:18;;;;;;;;;;;;;;;;;;111093;1275;9687;-75
2021/11/30 12:31:48;;;;;;;;;;;;;;;;;;110963;1274;7951;-74
2021/11/30 12:34:34;;;;;;;;;;;;;;;;;;110965;1276;8937;-75
2021/11/30 12:37:28;;;;;;;;;;;;;;;;;;110934;1275;8374;-77
2021/11/30 12:40:06;;;;;;;;;;;;;;;;;;109943;1274;887542;-75
2021/11/30 12:42:40;;;;;;;;;;;;;;;;;;110788;1276;8911;-76
2021/11/30 12:45:15;;;;;;;;;;;;;;;;;;110933;1276;8373;-76
2021/11/30 12:47:43;;;;;;;;;;;;;;;;;;110585;1276;9753;-75
2021/11/30 12:50:25;;;;;;;;;;;;;;;;;;110935;1274;8801;-75
2021/11/30 12:53:01;;;;;;;;;;;;;;;;;;110530;1277;9750;-75
2021/11/30 12:55:44;;;;;;;;;;;;;;;;;;110826;1276;8956;-75
2021/11/30 12:58:30;;;;;;;;;;;;;;;;;;110942;1274;10151;-75
2021/11/30 13:01:19;;;;;;;;;;;;;;;;;;111024;1275;9695;-75
2021/11/30 13:04:11;;;;;;;;;;;;;;;;;;110891;1274;8784;-74
2021/11/30 13:06:58;;;;;;;;;;;;;;;;;;110953;1274;8822;-75
2021/11/30 13:09:40;;;;;;;;;;;;;;;;;;110800;1277;8938;-76
2021/11/30 13:12:11;;;;;;;;;;;;;;;;;;110822;1276;9273;-74
2021/11/30 13:15:03;;;;;;;;;;;;;;;;;;110932;1274;9036;-75
2021/11/30 13:17:35;;;;;;;;;;;;;;;;;;110956;1274;8988;-76
2021/11/30 13:20:16;;;;;;;;;;;;;;;;;;110949;1276;8780;-75
2021/11/30 13:22:47;;;;;;;;;;;;;;;;;;110953;1274;8795;-75
2021/11/30 13:25:31;;;;;;;;;;;;;;;;;;110795;1276;8756;-76
2021/11/30 13:28:19;;;;;;;;;;;;;;;;;;110823;1273;8557;-75
2021/11/30 13:30:49;;;;;;;;;;;;;;;;;;110909;1276;8784;-72
2021/11/30 13:33:19;;;;;;;;;;;;;;;;;;110925;1276;9698;-75
2021/11/30 13:35:51;;;;;;;;;;;;;;;;;;110941;1275;8373;-75
2021/11/30 13:38:22;;;;;;;;;;;;;;;;;;110961;1274;9687;-79
2021/11/30 13:40:53;;;;;;;;;;;;;;;;;;110953;1276;8406;-74
2021/11/30 13:43:24;;;;;;;;;;;;;;;;;;111009;1276;7990;-73
2021/11/30 13:45:56;;;;;;;;;;;;;;;;;;111000;1276;8358;-72
2021/11/30 13:48:30;;;;;;;;;;;;;;;;;;110948;1276;9707;-73
2021/11/30 13:51:12;;;;;;;;;;;;;;;;;;110954;1274;9702;-73
2021/11/30 13:53:49;;;;;;;;;;;;;;;;;;111018;1275;8002;-73
2021/11/30 13:56:42;;;;;;;;;;;;;;;;;;110956;1276;8533;-74
2021/11/30 14:02:34;;;;;;;;;;;;;;;;;;110949;1276;9696;-73
2021/11/30 14:05:03;;;;;;;;;;;;;;;;;;110959;1275;8422;-74
2021/11/30 14:07:33;;;;;;;;;;;;;;;;;;110585;1275;8901;-72
2021/11/30 14:10:22;;;;;;;;;;;;;;;;;;110920;1276;8199;-73
2021/11/30 14:12:50;;;;;;;;;;;;;;;;;;110923;1274;8020;-73
2021/11/30 14:15:18;;;;;;;;;;;;;;;;;;110518;1277;8964;-73
2021/11/30 14:17:47;;;;;;;;;;;;;;;;;;110869;1276;9694;-74
2021/11/30 14:20:15;;;;;;;;;;;;;;;;;;110992;1276;7999;-72
2021/11/30 14:22:44;;;;;;;;;;;;;;;;;;110947;1275;8802;-73
2021/11/30 14:25:21;;;;;;;;;;;;;;;;;;110814;1274;8377;-76
2021/11/30 14:27:53;;;;;;;;;;;;;;;;;;110880;1274;9697;-73
2021/11/30 14:30:27;;;;;;;;;;;;;;;;;;110966;1275;7999;-73
2021/11/30 14:33:06;;;;;;;;;;;;;;;;;;110548;1277;8807;-73
2021/11/30 14:35:58;;;;;;;;;;;;;;;;;;110796;1277;8105;-73
2021/11/30 14:38:50;;;;;;;;;;;;;;;;;;110813;1276;9694;-74
2021/11/30 14:41:33;;;;;;;;;;;;;;;;;;110956;1276;9698;-75
2021/11/30 14:44:21;;;;;;;;;;;;;;;;;;110941;1276;8375;-75
2021/11/30 14:46:49;;;;;;;;;;;;;;;;;;110954;1276;9698;-76
2021/11/30 14:49:17;;;;;;;;;;;;;;;;;;110942;1276;8016;-74
2021/11/30 14:51:45;;;;;;;;;;;;;;;;;;110942;1274;8931;-74
2021/11/30 14:54:16;;;;;;;;;;;;;;;;;;110951;1276;9701;-76
2021/11/30 14:56:45;;;;;;;;;;;;;;;;;;110945;1275;8360;-75
2021/11/30 14:59:18;;;;;;;;;;;;;;;;;;110935;1276;9687;-75
2021/11/30 15:01:57;;;;;;;;;;;;;;;;;;110990;1276;8937;-76
2021/11/30 15:04:29;;;;;;;;;;;;;;;;;;111034;1276;8904;-76
2021/11/30 15:07:07;;;;;;;;;;;;;;;;;;110939;1276;9790;-77
2021/11/30 15:09:42;;;;;;;;;;;;;;;;;;110748;1277;9472;-77
2021/11/30 15:12:11;;;;;;;;;;;;;;;;;;110955;1274;9694;-76
2021/11/30 15:14:40;;;;;;;;;;;;;;;;;;110939;1274;7986;-76
2021/11/30 15:17:12;;;;;;;;;;;;;;;;;;110975;1276;8787;-78
2021/11/30 15:19:43;;;;;;;;;;;;;;;;;;110967;1274;9687;-79
2021/11/30 15:22:18;;;;;;;;;;;;;;;;;;110993;1273;9031;-77
2021/11/30 15:24:58;;;;;;;;;;;;;;;;;;110999;1274;8831;-77
2021/11/30 15:27:36;;;;;;;;;;;;;;;;;;110849;1276;9132;-75
2021/11/30 15:30:06;;;;;;;;;;;;;;;;;;111057;1275;8782;-76
2021/11/30 15:32:35;;;;;;;;;;;;;;;;;;111071;1275;8005;-76
2021/11/30 15:35:05;;;;;;;;;;;;;;;;;;111083;1274;9717;-78
2021/11/30 15:37:34;;;;;;;;;;;;;;;;;;111035;1273;9688;-74
2021/11/30 15:40:03;;;;;;;;;;;;;;;;;;110923;1275;8012;-76
2021/11/30 15:42:31;;;;;;;;;;;;;;;;;;110935;1275;8971;-75
2021/11/30 15:44:59;;;;;;;;;;;;;;;;;;110974;1274;9688;-77
2021/11/30 15:47:27;;;;;;;;;;;;;;;;;;111062;1274;8002;-76
2021/11/30 15:49:55;;;;;;;;;;;;;;;;;;110960;1275;8938;-76
2021/11/30 15:52:27;;;;;;;;;;;;;;;;;;110530;1276;9715;-78
2021/11/30 15:54:59;;;;;;;;;;;;;;;;;;110530;1276;8051;-75
2021/11/30 15:57:27;;;;;;;;;;;;;;;;;;110862;1276;8784;-74
2021/11/30 16:00:15;;;;;;;;;;;;;;;;;;110940;1276;9700;-76
2021/11/30 16:02:49;;;;;;;;;;;;;;;;;;110767;1275;9786;-78
2021/11/30 16:05:21;;;;;;;;;;;;;;;;;;110342;1276;9697;-72
2021/11/30 16:07:49;;;;;;;;;;;;;;;;;;110967;1276;7930;-76
2021/11/30 16:10:17;;;;;;;;;;;;;;;;;;110956;1276;8372;-76
2021/11/30 16:12:45;;;;;;;;;;;;;;;;;;110961;1275;9123;-75
2021/11/30 16:15:13;;;;;;;;;;;;;;;;;;110808;1276;8015;-74
2021/11/30 16:17:41;;;;;;;;;;;;;;;;;;110839;1275;8416;-76
2021/11/30 16:20:09;;;;;;;;;;;;;;;;;;110908;1272;9746;-75
2021/11/30 16:22:37;;;;;;;;;;;;;;;;;;110964;1272;8370;-75
2021/11/30 16:25:06;;;;;;;;;;;;;;;;;;110956;1276;8181;-74
2021/11/30 16:27:35;;;;;;;;;;;;;;;;;;110806;1274;8790;-75
2021/11/30 16:30:04;;;;;;;;;;;;;;;;;;110952;1276;9701;-77
2021/11/30 16:32:32;;;;;;;;;;;;;;;;;;110976;1276;8011;-74
2021/11/30 16:35:00;;;;;;;;;;;;;;;;;;110491;1276;9685;-76
2021/11/30 16:37:28;;;;;;;;;;;;;;;;;;110975;1276;10156;-75
2021/11/30 16:39:56;;;;;;;;;;;;;;;;;;110959;1276;8399;-74
2021/11/30 16:42:24;;;;;;;;;;;;;;;;;;110969;1276;7979;-75
2021/11/30 16:44:52;;;;;;;;;;;;;;;;;;110596;1276;8939;-75
2021/11/30 16:47:22;;;;;;;;;;;;;;;;;;110777;1276;8756;-76
2021/11/30 16:49:50;;;;;;;;;;;;;;;;;;110805;1276;8791;-76
2021/11/30 16:52:18;;;;;;;;;;;;;;;;;;110548;1277;8811;-79
2021/11/30 16:54:46;;;;;;;;;;;;;;;;;;110945;1276;9693;-77
2021/11/30 16:57:14;;;;;;;;;;;;;;;;;;110957;1274;7974;-77
2021/11/30 16:59:44;;;;;;;;;;;;;;;;;;110585;1276;7990;-75
2021/11/30 17:02:12;;;;;;;;;;;;;;;;;;110935;1276;9687;-76
2021/11/30 17:04:42;;;;;;;;;;;;;;;;;;110944;1276;7999;-77
2021/11/30 17:07:10;;;;;;;;;;;;;;;;;;110542;1276;9717;-75
2021/11/30 17:09:38;;;;;;;;;;;;;;;;;;110563;1276;9654;-75
2021/11/30 17:12:06;;;;;;;;;;;;;;;;;;110478;1277;9690;-78
2021/11/30 17:14:34;;;;;;;;;;;;;;;;;;110977;1276;7940;-79
2021/11/30 17:17:03;;;;;;;;;;;;;;;;;;110706;1276;9039;-77
2021/11/30 17:19:31;;;;;;;;;;;;;;;;;;111033;1273;9690;-80
2021/11/30 17:21:59;;;;;;;;;;;;;;;;;;110990;1276;8843;-77
2021/11/30 17:24:28;;;;;;;;;;;;;;;;;;110976;1275;8791;-78
2021/11/30 17:26:56;;;;;;;;;;;;;;;;;;110595;1276;7935;-76